Time;durP1;ratioP1;P1;durP2;ratioP2;P2;SDS_P1;SDS_P2;PMS_P1;PMS_P2;Temp;Humidity;BMP_temperature;BMP_pressure;BME280_temperature;BME280_humidity;BME280_pressure;Samples;Min_cycle;Max_cycle;Signal;HPM_P1;HPM_P2
2021/11/30 00:01:48;;;;;;;0.60;0.60;;;;;;;;;;5072920;28;20202;-65
2021/11/30 00:04:16;;;;;;;0.60;0.60;;;;;;;;;;5073273;28;20172;-66
2021/11/30 00:06:42;;;;;;;0.50;0.50;;;;;;;;;;5073236;28;20244;-65
2021/11/30 00:10:43;;;;;;;0.50;0.50;;;;;;;;;;5073048;28;20178;-65
2021/11/30 00:12:10;;;;;;;0.50;0.50;;;;;;;;;;5072618;28;20213;-65
2021/11/30 00:14:37;;;;;;;0.50;0.50;;;;;;;;;;5055108;28;20180;-65
2021/11/30 00:17:04;;;;;;;0.70;0.70;;;;;;;;;;5073030;28;20589;-65
2021/11/30 00:19:29;;;;;;;0.60;0.60;;;;;;;;;;5073005;28;20689;-65
2021/11/30 00:21:56;;;;;;;0.60;0.60;;;;;;;;;;5072607;28;20226;-65
2021/11/30 00:24:24;;;;;;;0.50;0.50;;;;;;;;;;5072836;28;20398;-65
2021/11/30 00:26:50;;;;;;;0.60;0.60;;;;;;;;;;5072900;28;20598;-65
2021/11/30 00:29:16;;;;;;;0.50;0.50;;;;;;;;;;5072587;28;20220;-65
2021/11/30 00:31:42;;;;;;;0.50;0.50;;;;;;;;;;5072475;28;20231;-65
2021/11/30 00:34:08;;;;;;;0.50;0.50;;;;;;;;;;5072495;28;20167;-65
2021/11/30 00:36:34;;;;;;;0.60;0.60;;;;;;;;;;5054719;28;20221;-65
2021/11/30 00:39:00;;;;;;;0.50;0.50;;;;;;;;;;5072654;28;20480;-65
2021/11/30 00:41:26;;;;;;;0.50;0.50;;;;;;;;;;5072303;28;20652;-65
2021/11/30 00:43:54;;;;;;;0.50;0.50;;;;;;;;;;5072439;28;20422;-65
2021/11/30 00:46:32;;;;;;;0.60;0.60;;;;;;;;;;5072429;28;20458;-65
2021/11/30 00:48:59;;;;;;;0.50;0.50;;;;;;;;;;5072451;28;20261;-65
2021/11/30 00:51:25;;;;;;;0.50;0.50;;;;;;;;;;5071982;28;20209;-65
2021/11/30 00:53:51;;;;;;;0.50;0.50;;;;;;;;;;5072227;28;20530;-65
2021/11/30 00:56:18;;;;;;;0.50;0.50;;;;;;;;;;5072405;28;20163;-65
2021/11/30 00:58:44;;;;;;;0.50;0.50;;;;;;;;;;5072196;28;20565;-65
2021/11/30 01:01:10;;;;;;;0.47;0.47;;;;;;;;;;5071953;28;20372;-66
2021/11/30 01:03:36;;;;;;;0.50;0.50;;;;;;;;;;5071944;28;20332;-65
2021/11/30 01:06:02;;;;;;;0.50;0.50;;;;;;;;;;5072128;28;20406;-65
2021/11/30 01:08:28;;;;;;;0.50;0.50;;;;;;;;;;5071390;28;20164;-65
2021/11/30 01:10:54;;;;;;;0.50;0.50;;;;;;;;;;5071793;28;20277;-65
2021/11/30 01:13:21;;;;;;;0.50;0.50;;;;;;;;;;5053898;28;20225;-65
2021/11/30 01:15:47;;;;;;;0.50;0.50;;;;;;;;;;5071825;28;20638;-65
2021/11/30 01:18:13;;;;;;;0.50;0.50;;;;;;;;;;5071940;28;20651;-65
2021/11/30 01:20:39;;;;;;;0.50;0.50;;;;;;;;;;5054052;28;20699;-65
2021/11/30 01:23:06;;;;;;;0.60;0.60;;;;;;;;;;5071598;28;20187;-66
2021/11/30 01:25:33;;;;;;;0.70;0.70;;;;;;;;;;5071992;28;20446;-65
2021/11/30 01:27:59;;;;;;;0.60;0.60;;;;;;;;;;5071964;28;20586;-65
2021/11/30 01:30:25;;;;;;;0.50;0.50;;;;;;;;;;5071592;28;20191;-65
2021/11/30 01:32:51;;;;;;;0.52;0.52;;;;;;;;;;5071612;28;20429;-65
2021/11/30 01:35:18;;;;;;;0.50;0.50;;;;;;;;;;5053739;28;20198;-65
2021/11/30 01:37:45;;;;;;;0.60;0.60;;;;;;;;;;5053730;28;20413;-65
2021/11/30 01:40:14;;;;;;;0.50;0.50;;;;;;;;;;5071519;28;20177;-65
2021/11/30 01:42:44;;;;;;;0.60;0.60;;;;;;;;;;5071665;28;20224;-66
2021/11/30 01:45:12;;;;;;;0.52;0.52;;;;;;;;;;5071588;28;20170;-65
2021/11/30 01:47:58;;;;;;;0.60;0.60;;;;;;;;;;5071622;28;20167;-65
2021/11/30 01:50:24;;;;;;;0.70;0.70;;;;;;;;;;5071338;28;20186;-65
2021/11/30 01:52:50;;;;;;;0.60;0.60;;;;;;;;;;5071432;28;20194;-65
2021/11/30 01:55:17;;;;;;;0.50;0.50;;;;;;;;;;5071529;28;20397;-65
2021/11/30 01:57:43;;;;;;;0.50;0.50;;;;;;;;;;5071528;28;20209;-65
2021/11/30 02:00:09;;;;;;;0.60;0.60;;;;;;;;;;5071356;28;20170;-65
2021/11/30 02:02:35;;;;;;;0.60;0.60;;;;;;;;;;5071205;28;20245;-65
2021/11/30 02:05:01;;;;;;;0.50;0.50;;;;;;;;;;5071493;28;20571;-65
2021/11/30 02:07:27;;;;;;;0.60;0.60;;;;;;;;;;5071386;28;20437;-65
2021/11/30 02:09:53;;;;;;;0.70;0.70;;;;;;;;;;5071354;28;20202;-65
2021/11/30 02:12:20;;;;;;;0.50;0.50;;;;;;;;;;5071104;28;20432;-65
2021/11/30 02:14:46;;;;;;;0.60;0.60;;;;;;;;;;5071379;28;20483;-65
2021/11/30 02:17:13;;;;;;;0.50;0.50;;;;;;;;;;5070890;28;20174;-65
2021/11/30 02:19:52;;;;;;;0.60;0.60;;;;;;;;;;5072113;28;20164;-65
2021/11/30 02:22:18;;;;;;;0.60;0.60;;;;;;;;;;5075044;28;20179;-65
2021/11/30 02:24:44;;;;;;;0.50;0.50;;;;;;;;;;5075409;28;20176;-65
2021/11/30 02:27:10;;;;;;;0.60;0.60;;;;;;;;;;5075239;28;20175;-65
2021/11/30 02:29:36;;;;;;;0.50;0.50;;;;;;;;;;5075149;28;20413;-65
2021/11/30 02:32:03;;;;;;;0.60;0.60;;;;;;;;;;5056799;28;20207;-65
2021/11/30 02:34:29;;;;;;;0.50;0.50;;;;;;;;;;5075032;28;20163;-65
2021/11/30 02:37:03;;;;;;;0.70;0.70;;;;;;;;;;5074988;28;20164;-65
2021/11/30 02:39:29;;;;;;;0.60;0.60;;;;;;;;;;5075944;28;20425;-65
2021/11/30 02:41:57;;;;;;;0.50;0.50;;;;;;;;;;5074577;28;20214;-65
2021/11/30 02:44:23;;;;;;;0.50;0.50;;;;;;;;;;5074870;28;20397;-65
2021/11/30 02:46:51;;;;;;;0.50;0.50;;;;;;;;;;5074758;28;20713;-65
2021/11/30 02:49:22;;;;;;;0.50;0.50;;;;;;;;;;5074590;28;20255;-65
2021/11/30 02:51:51;;;;;;;0.50;0.50;;;;;;;;;;5074265;28;20199;-65
2021/11/30 02:54:17;;;;;;;0.60;0.60;;;;;;;;;;5074651;28;20706;-65
2021/11/30 02:56:45;;;;;;;0.60;0.60;;;;;;;;;;5074648;28;20176;-65
2021/11/30 02:59:11;;;;;;;0.50;0.50;;;;;;;;;;5074577;28;20179;-65
2021/11/30 03:04:14;;;;;;;0.50;0.50;;;;;;;;;;5108713;22;20333;-63
2021/11/30 03:06:40;;;;;;;0.50;0.50;;;;;;;;;;5094757;28;20174;-63
2021/11/30 03:09:06;;;;;;;0.70;0.70;;;;;;;;;;5076678;28;20194;-63
2021/11/30 03:11:33;;;;;;;0.60;0.60;;;;;;;;;;5094306;28;20210;-62
2021/11/30 03:13:59;;;;;;;0.70;0.70;;;;;;;;;;5076283;28;20190;-63
2021/11/30 03:16:25;;;;;;;0.50;0.50;;;;;;;;;;5094578;28;20184;-63
2021/11/30 03:18:51;;;;;;;0.50;0.50;;;;;;;;;;5094598;28;20400;-63
2021/11/30 03:21:17;;;;;;;0.50;0.50;;;;;;;;;;5095508;28;20177;-63
2021/11/30 03:23:43;;;;;;;0.60;0.60;;;;;;;;;;5094574;28;20268;-63
2021/11/30 03:26:09;;;;;;;0.50;0.50;;;;;;;;;;5094352;28;20405;-63
2021/11/30 03:28:35;;;;;;;0.50;0.50;;;;;;;;;;5094286;28;20409;-62
2021/11/30 03:31:07;;;;;;;0.50;0.50;;;;;;;;;;5093450;28;20182;-62
2021/11/30 03:36:18;;;;;;;0.60;0.60;;;;;;;;;;5094185;28;20223;-63
2021/11/30 03:38:44;;;;;;;0.60;0.60;;;;;;;;;;5094135;28;20170;-62
2021/11/30 03:41:10;;;;;;;0.70;0.70;;;;;;;;;;5093942;28;20172;-62
2021/11/30 03:43:36;;;;;;;0.60;0.60;;;;;;;;;;5093937;28;20190;-63
2021/11/30 03:46:02;;;;;;;0.60;0.60;;;;;;;;;;5094044;28;20207;-62
2021/11/30 03:48:28;;;;;;;0.70;0.70;;;;;;;;;;5093929;28;20178;-63
2021/11/30 03:50:55;;;;;;;0.60;0.60;;;;;;;;;;5093537;28;20200;-64
2021/11/30 03:53:21;;;;;;;0.70;0.70;;;;;;;;;;5075602;28;20530;-62
2021/11/30 03:55:47;;;;;;;0.60;0.60;;;;;;;;;;5093882;28;20170;-64
2021/11/30 03:58:13;;;;;;;0.50;0.50;;;;;;;;;;5093664;28;20245;-64
2021/11/30 04:00:39;;;;;;;0.60;0.60;;;;;;;;;;5093472;28;20415;-62
2021/11/30 04:03:05;;;;;;;0.60;0.60;;;;;;;;;;5075758;28;20213;-62
2021/11/30 04:05:31;;;;;;;0.70;0.70;;;;;;;;;;5093507;28;20162;-62
2021/11/30 04:07:57;;;;;;;0.60;0.60;;;;;;;;;;5093845;28;20163;-63
2021/11/30 04:10:23;;;;;;;0.60;0.60;;;;;;;;;;5093286;28;20553;-63
2021/11/30 04:12:50;;;;;;;0.60;0.60;;;;;;;;;;5093341;28;20641;-64
2021/11/30 04:15:16;;;;;;;0.50;0.50;;;;;;;;;;5093425;28;20162;-64
2021/11/30 04:17:42;;;;;;;0.50;0.50;;;;;;;;;;5093276;28;20173;-61
2021/11/30 04:20:09;;;;;;;0.73;0.73;;;;;;;;;;5093057;28;20680;-64
2021/11/30 04:22:35;;;;;;;0.50;0.50;;;;;;;;;;5093170;28;20412;-63
2021/11/30 04:25:01;;;;;;;0.50;0.50;;;;;;;;;;5093175;28;20563;-62
2021/11/30 04:27:27;;;;;;;0.60;0.60;;;;;;;;;;5074993;28;20170;-62
2021/11/30 04:29:53;;;;;;;0.60;0.60;;;;;;;;;;5093233;28;20170;-63
2021/11/30 04:32:19;;;;;;;0.50;0.50;;;;;;;;;;5092965;28;20435;-63
2021/11/30 04:34:45;;;;;;;0.70;0.70;;;;;;;;;;5093364;28;20502;-64
2021/11/30 04:37:11;;;;;;;0.70;0.70;;;;;;;;;;5093080;28;20416;-64
2021/11/30 04:39:37;;;;;;;0.60;0.60;;;;;;;;;;5092931;28;20415;-64
2021/11/30 04:42:03;;;;;;;0.50;0.50;;;;;;;;;;5092519;28;20411;-64
2021/11/30 04:44:32;;;;;;;0.50;0.50;;;;;;;;;;5091945;28;20192;-64
2021/11/30 04:47:09;;;;;;;0.60;0.60;;;;;;;;;;5092883;28;20186;-63
2021/11/30 04:52:32;;;;;;;0.60;0.60;;;;;;;;;;5079259;28;20241;-64
2021/11/30 04:54:58;;;;;;;0.60;0.60;;;;;;;;;;5092739;28;20576;-64
2021/11/30 04:57:24;;;;;;;0.50;0.50;;;;;;;;;;5092623;28;20227;-62
2021/11/30 04:59:50;;;;;;;0.70;0.70;;;;;;;;;;5092593;28;20239;-63
2021/11/30 05:02:17;;;;;;;0.60;0.60;;;;;;;;;;5092098;28;20925;-63
2021/11/30 05:04:45;;;;;;;0.60;0.60;;;;;;;;;;5074291;28;20174;-64
2021/11/30 05:07:13;;;;;;;0.68;0.68;;;;;;;;;;5074235;28;20253;-64
2021/11/30 05:09:39;;;;;;;0.50;0.50;;;;;;;;;;5092445;28;20625;-64
2021/11/30 05:12:05;;;;;;;0.60;0.60;;;;;;;;;;5092143;28;20205;-64
2021/11/30 05:14:31;;;;;;;0.60;0.60;;;;;;;;;;5092411;28;20227;-63
2021/11/30 05:16:57;;;;;;;0.50;0.50;;;;;;;;;;5092352;28;20649;-63
2021/11/30 05:19:23;;;;;;;0.57;0.57;;;;;;;;;;5092203;28;20404;-63
2021/11/30 05:21:49;;;;;;;0.70;0.70;;;;;;;;;;5091995;28;20483;-63
2021/11/30 05:24:15;;;;;;;0.60;0.60;;;;;;;;;;5092322;28;20174;-63
2021/11/30 05:26:41;;;;;;;0.50;0.50;;;;;;;;;;5092307;28;20181;-63
2021/11/30 05:29:07;;;;;;;0.50;0.50;;;;;;;;;;5092349;28;20419;-63
2021/11/30 05:31:34;;;;;;;0.60;0.60;;;;;;;;;;5092219;28;20190;-63
2021/11/30 05:34:00;;;;;;;0.88;0.88;;;;;;;;;;5094430;28;20194;-63
2021/11/30 05:36:26;;;;;;;0.50;0.50;;;;;;;;;;5092467;28;20233;-62
2021/11/30 05:38:52;;;;;;;0.60;0.60;;;;;;;;;;5092369;28;20166;-63
2021/11/30 05:41:18;;;;;;;0.53;0.53;;;;;;;;;;5073784;28;20174;-63
2021/11/30 05:43:44;;;;;;;0.50;0.50;;;;;;;;;;5073740;28;20489;-64
2021/11/30 05:46:10;;;;;;;0.70;0.70;;;;;;;;;;5091888;28;20162;-61
2021/11/30 05:48:36;;;;;;;0.60;0.60;;;;;;;;;;5073632;28;20223;-63
2021/11/30 05:51:03;;;;;;;0.50;0.50;;;;;;;;;;5091666;28;20201;-62
2021/11/30 05:53:29;;;;;;;0.50;0.50;;;;;;;;;;5091743;28;20858;-62
2021/11/30 05:55:58;;;;;;;0.60;0.60;;;;;;;;;;5097133;28;20235;-63
2021/11/30 05:58:24;;;;;;;0.60;0.60;;;;;;;;;;5098490;28;20564;-63
2021/11/30 06:00:51;;;;;;;0.50;0.50;;;;;;;;;;5098377;28;20174;-63
2021/11/30 06:03:29;;;;;;;0.60;0.60;;;;;;;;;;5080032;28;20209;-63
2021/11/30 06:05:55;;;;;;;0.50;0.50;;;;;;;;;;5080603;28;20231;-61
2021/11/30 06:08:21;;;;;;;0.50;0.50;;;;;;;;;;5080211;28;20173;-64
2021/11/30 06:10:47;;;;;;;0.53;0.53;;;;;;;;;;5098176;28;20643;-64
2021/11/30 06:13:14;;;;;;;0.50;0.50;;;;;;;;;;5098359;28;20431;-64
2021/11/30 06:15:40;;;;;;;0.50;0.50;;;;;;;;;;5098199;28;20429;-62
2021/11/30 06:18:05;;;;;;;0.70;0.70;;;;;;;;;;5097570;28;20174;-64
2021/11/30 06:20:34;;;;;;;0.70;0.70;;;;;;;;;;5097992;28;20841;-63
2021/11/30 06:23:00;;;;;;;0.50;0.50;;;;;;;;;;5098097;28;20428;-63
2021/11/30 06:25:27;;;;;;;0.50;0.50;;;;;;;;;;5079973;28;20216;-63
2021/11/30 06:27:53;;;;;;;0.60;0.60;;;;;;;;;;5098247;28;20525;-62
2021/11/30 06:30:20;;;;;;;0.70;0.70;;;;;;;;;;5097846;28;20190;-64
2021/11/30 06:32:46;;;;;;;0.60;0.60;;;;;;;;;;5098556;28;20190;-62
2021/11/30 06:35:12;;;;;;;0.60;0.60;;;;;;;;;;5080141;28;20181;-63
2021/11/30 06:37:38;;;;;;;0.60;0.60;;;;;;;;;;5098310;28;20618;-64
2021/11/30 06:40:04;;;;;;;0.60;0.60;;;;;;;;;;5098123;28;20397;-63
2021/11/30 06:42:30;;;;;;;0.50;0.50;;;;;;;;;;5098093;28;20197;-63
2021/11/30 06:44:56;;;;;;;0.50;0.50;;;;;;;;;;5097967;28;20521;-64
2021/11/30 06:47:22;;;;;;;0.60;0.60;;;;;;;;;;5098019;28;20166;-63
2021/11/30 06:49:48;;;;;;;0.50;0.50;;;;;;;;;;5079766;28;20408;-64
2021/11/30 06:52:14;;;;;;;0.50;0.50;;;;;;;;;;5097668;28;20837;-63
2021/11/30 06:54:45;;;;;;;0.60;0.60;;;;;;;;;;5097922;28;20404;-63
2021/11/30 06:57:12;;;;;;;0.50;0.50;;;;;;;;;;5098096;28;20158;-63
2021/11/30 06:59:38;;;;;;;0.50;0.50;;;;;;;;;;5097237;28;20194;-63
2021/11/30 07:02:05;;;;;;;0.70;0.70;;;;;;;;;;5096405;28;20167;-64
2021/11/30 07:04:34;;;;;;;0.60;0.60;;;;;;;;;;5097844;28;20633;-63
2021/11/30 07:07:08;;;;;;;0.60;0.60;;;;;;;;;;5094901;28;20182;-60
2021/11/30 07:09:49;;;;;;;0.50;0.50;;;;;;;;;;5076704;28;20232;-63
2021/11/30 07:12:46;;;;;;;0.50;0.50;;;;;;;;;;5094361;28;20285;-63
2021/11/30 07:15:10;;;;;;;0.60;0.60;;;;;;;;;;5094481;28;20234;-63
2021/11/30 07:17:37;;;;;;;0.60;0.60;;;;;;;;;;5094440;28;20241;-62
2021/11/30 07:20:04;;;;;;;0.60;0.60;;;;;;;;;;5094167;28;20522;-64
2021/11/30 07:22:30;;;;;;;0.60;0.60;;;;;;;;;;5094072;28;20649;-64
2021/11/30 07:24:57;;;;;;;0.55;0.55;;;;;;;;;;5094325;28;20687;-63
2021/11/30 07:27:23;;;;;;;0.63;0.63;;;;;;;;;;5094174;28;20614;-63
2021/11/30 07:29:49;;;;;;;0.70;0.70;;;;;;;;;;5076145;28;20197;-63
2021/11/30 07:32:15;;;;;;;0.60;0.60;;;;;;;;;;5093862;28;20229;-63
2021/11/30 07:34:41;;;;;;;0.50;0.50;;;;;;;;;;5094139;28;20412;-63
2021/11/30 07:37:07;;;;;;;0.68;0.68;;;;;;;;;;5094369;28;20759;-63
2021/11/30 07:39:34;;;;;;;0.70;0.70;;;;;;;;;;5094257;28;20227;-64
2021/11/30 07:42:00;;;;;;;0.80;0.80;;;;;;;;;;5091326;28;20186;-63
2021/11/30 07:44:25;;;;;;;0.60;0.60;;;;;;;;;;5093987;28;20176;-64
2021/11/30 07:46:52;;;;;;;0.60;0.60;;;;;;;;;;5093948;28;20401;-63
2021/11/30 07:49:19;;;;;;;0.65;0.65;;;;;;;;;;5093372;28;20401;-64
2021/11/30 07:51:46;;;;;;;0.60;0.60;;;;;;;;;;5093626;28;20607;-63
2021/11/30 07:54:11;;;;;;;0.68;0.68;;;;;;;;;;5093759;28;20257;-63
2021/11/30 07:56:37;;;;;;;0.60;0.60;;;;;;;;;;5075643;28;20265;-65
2021/11/30 07:59:03;;;;;;;0.70;0.70;;;;;;;;;;5093259;28;20419;-64
2021/11/30 08:01:30;;;;;;;0.50;0.50;;;;;;;;;;5093158;28;20454;-64
2021/11/30 08:03:56;;;;;;;0.60;0.60;;;;;;;;;;5093365;28;20490;-63
2021/11/30 08:06:22;;;;;;;0.70;0.70;;;;;;;;;;5075350;28;20664;-64
2021/11/30 08:08:50;;;;;;;0.60;0.60;;;;;;;;;;5075214;28;20499;-64
2021/11/30 08:11:16;;;;;;;0.50;0.50;;;;;;;;;;5092565;28;20240;-64
2021/11/30 08:13:42;;;;;;;0.57;0.57;;;;;;;;;;5093070;28;20221;-64
2021/11/30 08:16:08;;;;;;;0.60;0.60;;;;;;;;;;5093339;28;20409;-64
2021/11/30 08:18:34;;;;;;;0.70;0.70;;;;;;;;;;5093190;28;20174;-64
2021/11/30 08:21:00;;;;;;;0.60;0.60;;;;;;;;;;5092885;28;20405;-64
2021/11/30 08:23:26;;;;;;;0.60;0.60;;;;;;;;;;5092711;28;20478;-63
2021/11/30 08:25:52;;;;;;;0.60;0.60;;;;;;;;;;5093271;28;20401;-63
2021/11/30 08:28:18;;;;;;;0.60;0.60;;;;;;;;;;5093392;28;20404;-64
2021/11/30 08:30:45;;;;;;;0.70;0.70;;;;;;;;;;5092607;28;20894;-64
2021/11/30 08:33:11;;;;;;;0.50;0.50;;;;;;;;;;5092631;28;20463;-63
2021/11/30 08:35:37;;;;;;;0.60;0.60;;;;;;;;;;5092920;28;20163;-64
2021/11/30 08:38:04;;;;;;;0.50;0.50;;;;;;;;;;5092567;28;20178;-64
2021/11/30 08:40:30;;;;;;;0.50;0.50;;;;;;;;;;5092918;28;20166;-63
2021/11/30 08:42:56;;;;;;;0.60;0.60;;;;;;;;;;5093070;28;20190;-62
2021/11/30 08:45:22;;;;;;;0.50;0.50;;;;;;;;;;5092357;28;20405;-63
2021/11/30 08:47:48;;;;;;;0.60;0.60;;;;;;;;;;5093444;28;20413;-63
2021/11/30 08:50:16;;;;;;;0.60;0.60;;;;;;;;;;5093233;28;20404;-63
2021/11/30 08:52:43;;;;;;;0.60;0.60;;;;;;;;;;5092726;28;20276;-63
2021/11/30 08:55:09;;;;;;;0.70;0.70;;;;;;;;;;5092618;28;20171;-62
2021/11/30 08:57:37;;;;;;;0.50;0.50;;;;;;;;;;5092516;28;20159;-64
2021/11/30 09:00:04;;;;;;;0.60;0.60;;;;;;;;;;5092242;28;20700;-62
2021/11/30 09:02:30;;;;;;;0.60;0.60;;;;;;;;;;5114315;22;20202;-63
2021/11/30 09:04:56;;;;;;;0.60;0.60;;;;;;;;;;5091244;28;20190;-64
2021/11/30 09:07:22;;;;;;;0.50;0.50;;;;;;;;;;5074137;28;20244;-65
2021/11/30 09:09:48;;;;;;;0.60;0.60;;;;;;;;;;5074018;28;20215;-64
2021/11/30 09:12:16;;;;;;;0.60;0.60;;;;;;;;;;5091749;28;20954;-64
2021/11/30 09:14:42;;;;;;;0.50;0.50;;;;;;;;;;5072020;28;20167;-64
2021/11/30 09:17:08;;;;;;;0.60;0.60;;;;;;;;;;5071898;28;20623;-64
2021/11/30 09:19:34;;;;;;;0.50;0.50;;;;;;;;;;5071907;28;20962;-64
2021/11/30 09:22:00;;;;;;;0.50;0.50;;;;;;;;;;5071916;28;20401;-64
2021/11/30 09:24:26;;;;;;;0.50;0.50;;;;;;;;;;5071784;28;20271;-65
2021/11/30 09:26:52;;;;;;;0.50;0.50;;;;;;;;;;5071833;28;20171;-65
2021/11/30 09:29:19;;;;;;;0.60;0.60;;;;;;;;;;5071192;28;20398;-64
2021/11/30 09:31:45;;;;;;;0.70;0.70;;;;;;;;;;5071457;28;20206;-65
2021/11/30 09:34:11;;;;;;;0.50;0.50;;;;;;;;;;5071859;28;20195;-64
2021/11/30 09:36:37;;;;;;;0.50;0.50;;;;;;;;;;5071637;28;20877;-64
2021/11/30 09:39:06;;;;;;;0.50;0.50;;;;;;;;;;5071667;28;20193;-64
2021/11/30 09:41:32;;;;;;;0.50;0.50;;;;;;;;;;5071476;28;20167;-65
2021/11/30 09:43:58;;;;;;;0.60;0.60;;;;;;;;;;5071669;28;20183;-64
2021/11/30 09:46:25;;;;;;;0.50;0.50;;;;;;;;;;5071665;28;20171;-64
2021/11/30 09:48:51;;;;;;;0.70;0.70;;;;;;;;;;5071492;28;20657;-64
2021/11/30 09:51:17;;;;;;;0.60;0.60;;;;;;;;;;5071406;28;20202;-65
2021/11/30 09:53:43;;;;;;;0.60;0.60;;;;;;;;;;5053664;28;20179;-65
2021/11/30 09:56:09;;;;;;;0.50;0.50;;;;;;;;;;5071549;28;20405;-65
2021/11/30 09:58:35;;;;;;;0.50;0.50;;;;;;;;;;5071412;28;20249;-65
2021/11/30 10:01:02;;;;;;;0.50;0.50;;;;;;;;;;5071269;28;20261;-64
2021/11/30 10:03:29;;;;;;;0.50;0.50;;;;;;;;;;5071225;28;20248;-65
2021/11/30 10:05:55;;;;;;;0.60;0.60;;;;;;;;;;5071396;28;20224;-64
2021/11/30 10:08:33;;;;;;;0.50;0.50;;;;;;;;;;5071390;28;20167;-65
2021/11/30 10:11:00;;;;;;;0.50;0.50;;;;;;;;;;5071046;28;20222;-65
2021/11/30 10:13:27;;;;;;;0.50;0.50;;;;;;;;;;5071200;28;20244;-64
2021/11/30 10:15:55;;;;;;;0.60;0.60;;;;;;;;;;5071310;28;20527;-65
2021/11/30 10:18:42;;;;;;;0.50;0.50;;;;;;;;;;5071208;28;20183;-65
2021/11/30 10:21:20;;;;;;;0.50;0.50;;;;;;;;;;5053096;28;20537;-65
2021/11/30 10:23:46;;;;;;;0.52;0.52;;;;;;;;;;5071067;28;20605;-64
2021/11/30 10:26:12;;;;;;;0.55;0.55;;;;;;;;;;5071226;28;20171;-65
2021/11/30 10:28:38;;;;;;;0.50;0.50;;;;;;;;;;5071158;28;20225;-65
2021/11/30 10:31:08;;;;;;;0.50;0.50;;;;;;;;;;5070890;28;20253;-65
2021/11/30 10:33:34;;;;;;;0.50;0.50;;;;;;;;;;5071052;28;20428;-65
2021/11/30 10:36:01;;;;;;;0.50;0.50;;;;;;;;;;5071034;28;20172;-65
2021/11/30 10:38:40;;;;;;;0.60;0.60;;;;;;;;;;5071027;28;20503;-65
2021/11/30 10:41:16;;;;;;;0.60;0.60;;;;;;;;;;5071086;28;20600;-65
2021/11/30 10:43:50;;;;;;;0.50;0.50;;;;;;;;;;5074773;28;20187;-65
2021/11/30 10:46:20;;;;;;;0.50;0.50;;;;;;;;;;5074845;28;20547;-65
2021/11/30 10:48:47;;;;;;;0.50;0.50;;;;;;;;;;5074165;28;20190;-65
2021/11/30 10:51:13;;;;;;;0.50;0.50;;;;;;;;;;5074315;28;20191;-65
2021/11/30 10:53:38;;;;;;;0.47;0.47;;;;;;;;;;5056616;28;20187;-66
2021/11/30 10:56:06;;;;;;;0.60;0.60;;;;;;;;;;5056611;28;20497;-65
2021/11/30 10:58:33;;;;;;;0.50;0.50;;;;;;;;;;5073901;28;20409;-65
2021/11/30 11:01:01;;;;;;;0.60;0.60;;;;;;;;;;5073601;28;20179;-65
2021/11/30 11:03:27;;;;;;;0.50;0.50;;;;;;;;;;5074153;28;20278;-65
2021/11/30 11:08:40;;;;;;;0.50;0.50;;;;;;;;;;5054609;28;20238;-66
2021/11/30 11:11:06;;;;;;;0.57;0.57;;;;;;;;;;5053545;28;20206;-66
2021/11/30 11:13:38;;;;;;;0.50;0.50;;;;;;;;;;5054130;28;20695;-66
2021/11/30 11:16:08;;;;;;;0.60;0.60;;;;;;;;;;5054300;28;20517;-66
2021/11/30 11:18:35;;;;;;;0.60;0.60;;;;;;;;;;5054130;28;20164;-66
2021/11/30 11:21:20;;;;;;;0.50;0.50;;;;;;;;;;5053414;28;20176;-66
2021/11/30 11:23:47;;;;;;;0.50;0.50;;;;;;;;;;5053686;28;20196;-66
2021/11/30 11:26:34;;;;;;;0.60;0.60;;;;;;;;;;5035960;28;20172;-66
2021/11/30 11:29:01;;;;;;;0.60;0.60;;;;;;;;;;5053732;28;20250;-66
2021/11/30 11:31:28;;;;;;;0.60;0.60;;;;;;;;;;5053484;28;20675;-66
2021/11/30 11:33:55;;;;;;;0.60;0.60;;;;;;;;;;5035526;28;20199;-66
2021/11/30 11:36:21;;;;;;;0.60;0.60;;;;;;;;;;5053982;28;20170;-67
2021/11/30 11:38:47;;;;;;;0.60;0.60;;;;;;;;;;5053555;28;20864;-66
2021/11/30 11:41:13;;;;;;;0.60;0.60;;;;;;;;;;5052625;28;20204;-66
2021/11/30 11:43:40;;;;;;;0.50;0.50;;;;;;;;;;5052998;28;20778;-66
2021/11/30 11:46:12;;;;;;;0.60;0.60;;;;;;;;;;5053615;28;20185;-66
2021/11/30 11:48:39;;;;;;;0.50;0.50;;;;;;;;;;5053665;28;20172;-66
2021/11/30 11:51:06;;;;;;;0.57;0.57;;;;;;;;;;5064224;28;20199;-66
2021/11/30 11:53:32;;;;;;;0.50;0.50;;;;;;;;;;5054773;28;20205;-66
2021/11/30 11:56:07;;;;;;;0.70;0.70;;;;;;;;;;5072630;28;20174;-66
2021/11/30 11:58:34;;;;;;;0.50;0.50;;;;;;;;;;5073392;28;20392;-66
2021/11/30 12:01:00;;;;;;;0.50;0.50;;;;;;;;;;5073214;28;20535;-66
2021/11/30 12:03:46;;;;;;;0.50;0.50;;;;;;;;;;5073163;28;20207;-66
2021/11/30 12:06:16;;;;;;;0.50;0.50;;;;;;;;;;5073126;28;20421;-66
2021/11/30 12:09:02;;;;;;;0.60;0.60;;;;;;;;;;5073121;28;20167;-65
2021/11/30 12:11:35;;;;;;;0.60;0.60;;;;;;;;;;5072922;28;20195;-65
2021/11/30 12:14:08;;;;;;;0.60;0.60;;;;;;;;;;5073040;28;20654;-65
2021/11/30 12:16:54;;;;;;;0.55;0.55;;;;;;;;;;5072992;28;20163;-65
2021/11/30 12:19:26;;;;;;;0.60;0.60;;;;;;;;;;5072780;28;20523;-65
2021/11/30 12:21:52;;;;;;;0.50;0.50;;;;;;;;;;5072632;28;20168;-65
2021/11/30 12:24:35;;;;;;;0.50;0.50;;;;;;;;;;5072878;28;20278;-65
2021/11/30 12:27:20;;;;;;;0.50;0.50;;;;;;;;;;5072876;28;20167;-66
2021/11/30 12:29:46;;;;;;;0.60;0.60;;;;;;;;;;5072839;28;20665;-66
2021/11/30 12:32:29;;;;;;;0.50;0.50;;;;;;;;;;5054620;28;20542;-65
2021/11/30 12:35:00;;;;;;;0.60;0.60;;;;;;;;;;5072731;28;20283;-65
2021/11/30 12:37:27;;;;;;;0.55;0.55;;;;;;;;;;5072766;28;20630;-65
2021/11/30 12:40:04;;;;;;;0.60;0.60;;;;;;;;;;5072633;28;20175;-65
2021/11/30 12:42:30;;;;;;;0.50;0.50;;;;;;;;;;5070812;28;20261;-65
2021/11/30 12:44:56;;;;;;;0.40;0.40;;;;;;;;;;5072602;28;20475;-65
2021/11/30 12:47:24;;;;;;;0.50;0.50;;;;;;;;;;5072010;28;20398;-65
2021/11/30 12:49:50;;;;;;;0.50;0.50;;;;;;;;;;5072385;28;20229;-65
2021/11/30 12:52:17;;;;;;;0.50;0.50;;;;;;;;;;5053592;28;20733;-65
2021/11/30 12:55:09;;;;;;;0.70;0.70;;;;;;;;;;5071890;28;20171;-65
2021/11/30 12:57:36;;;;;;;0.50;0.50;;;;;;;;;;5068471;28;20547;-66
2021/11/30 13:00:11;;;;;;;0.60;0.60;;;;;;;;;;5072041;28;20542;-65
2021/11/30 13:02:46;;;;;;;0.50;0.50;;;;;;;;;;5053882;28;20205;-65
2021/11/30 13:05:13;;;;;;;0.40;0.40;;;;;;;;;;5070921;28;20293;-66
2021/11/30 13:07:48;;;;;;;0.50;0.50;;;;;;;;;;5071697;28;20156;-66
2021/11/30 13:10:22;;;;;;;0.50;0.50;;;;;;;;;;5071645;28;20167;-65
2021/11/30 13:12:48;;;;;;;0.50;0.50;;;;;;;;;;5071931;28;20593;-66
2021/11/30 13:15:14;;;;;;;0.50;0.50;;;;;;;;;;5071508;28;20190;-66
2021/11/30 13:17:42;;;;;;;0.50;0.50;;;;;;;;;;5070743;28;20271;-65
2021/11/30 13:20:10;;;;;;;0.50;0.50;;;;;;;;;;5071594;28;20174;-65
2021/11/30 13:22:40;;;;;;;0.50;0.50;;;;;;;;;;5071661;28;20673;-65
2021/11/30 13:25:10;;;;;;;0.50;0.50;;;;;;;;;;5071519;28;20173;-66
2021/11/30 13:27:36;;;;;;;0.50;0.50;;;;;;;;;;5071334;28;20167;-65
2021/11/30 13:30:11;;;;;;;0.50;0.50;;;;;;;;;;5071803;28;20159;-65
2021/11/30 13:32:43;;;;;;;0.50;0.50;;;;;;;;;;5071826;28;20459;-65
2021/11/30 13:35:09;;;;;;;0.50;0.50;;;;;;;;;;5071635;28;20190;-65
2021/11/30 13:37:35;;;;;;;0.50;0.50;;;;;;;;;;5071308;28;20171;-66
2021/11/30 13:40:01;;;;;;;0.50;0.50;;;;;;;;;;5071672;28;20236;-65
2021/11/30 13:42:27;;;;;;;0.50;0.50;;;;;;;;;;5071477;28;20251;-66
2021/11/30 13:44:53;;;;;;;0.50;0.50;;;;;;;;;;5071475;28;20652;-65
2021/11/30 13:47:20;;;;;;;0.50;0.50;;;;;;;;;;5071573;28;20881;-65
2021/11/30 13:49:46;;;;;;;0.50;0.50;;;;;;;;;;5070805;28;20537;-65
2021/11/30 13:52:19;;;;;;;0.50;0.50;;;;;;;;;;5070021;28;20217;-65
2021/11/30 13:54:50;;;;;;;0.50;0.50;;;;;;;;;;5071227;28;20171;-66
2021/11/30 13:57:20;;;;;;;0.50;0.50;;;;;;;;;;5071192;28;20171;-65
2021/11/30 13:59:52;;;;;;;0.50;0.50;;;;;;;;;;5071053;28;20159;-65
2021/11/30 14:02:18;;;;;;;0.50;0.50;;;;;;;;;;5052074;28;20508;-65
2021/11/30 14:04:44;;;;;;;0.50;0.50;;;;;;;;;;5051360;28;20172;-66
2021/11/30 14:07:10;;;;;;;0.50;0.50;;;;;;;;;;5033340;28;20594;-65
2021/11/30 14:09:42;;;;;;;0.50;0.50;;;;;;;;;;5051270;28;20898;-65
2021/11/30 14:12:10;;;;;;;0.50;0.50;;;;;;;;;;5050515;28;20564;-65
2021/11/30 14:14:40;;;;;;;0.60;0.60;;;;;;;;;;5033780;28;20275;-65
2021/11/30 14:17:07;;;;;;;0.50;0.50;;;;;;;;;;5054511;28;20555;-65
2021/11/30 14:19:33;;;;;;;0.60;0.60;;;;;;;;;;5055285;28;20160;-65
2021/11/30 14:22:01;;;;;;;0.50;0.50;;;;;;;;;;5054524;28;20172;-65
2021/11/30 14:24:27;;;;;;;0.60;0.60;;;;;;;;;;5036962;28;20430;-65
2021/11/30 14:27:08;;;;;;;0.50;0.50;;;;;;;;;;5055178;28;20164;-65
2021/11/30 14:29:36;;;;;;;0.60;0.60;;;;;;;;;;5054934;28;20532;-65
2021/11/30 14:32:02;;;;;;;0.60;0.60;;;;;;;;;;5054748;28;20677;-65
2021/11/30 14:34:39;;;;;;;0.50;0.50;;;;;;;;;;5035824;28;20192;-65
2021/11/30 14:37:25;;;;;;;0.50;0.50;;;;;;;;;;5054753;28;20522;-65
2021/11/30 14:40:11;;;;;;;0.50;0.50;;;;;;;;;;5041203;28;20223;-65
2021/11/30 14:42:39;;;;;;;0.60;0.60;;;;;;;;;;5054495;28;20246;-65
2021/11/30 14:45:23;;;;;;;0.50;0.50;;;;;;;;;;5054296;28;20539;-65
2021/11/30 14:47:51;;;;;;;0.60;0.60;;;;;;;;;;5054770;28;20246;-65
2021/11/30 14:50:19;;;;;;;0.50;0.50;;;;;;;;;;5054314;28;20179;-65
2021/11/30 14:52:47;;;;;;;0.60;0.60;;;;;;;;;;5054633;28;20262;-65
2021/11/30 14:55:17;;;;;;;0.60;0.60;;;;;;;;;;5054311;28;20165;-65
2021/11/30 14:57:43;;;;;;;0.50;0.50;;;;;;;;;;5036455;28;20230;-65
2021/11/30 15:00:28;;;;;;;0.60;0.60;;;;;;;;;;5054322;28;20229;-65